Time;durP1;ratioP1;P1;durP2;ratioP2;P2;SDS_P1;SDS_P2;PMS_P1;PMS_P2;Temp;Humidity;BMP_temperature;BMP_pressure;BME280_temperature;BME280_humidity;BME280_pressure;Samples;Min_cycle;Max_cycle;Signal;HPM_P1;HPM_P2
2021/01/06 00:01:11;;;;;;;35.65;18.80;;;1.60;80.90;;;;;;4959050;28;20113;-81
2021/01/06 00:03:36;;;;;;;41.08;20.63;;;1.60;80.90;;;;;;4943602;28;20039;-82
2021/01/06 00:06:09;;;;;;;42.58;21.50;;;1.60;81.00;;;;;;4943616;28;20559;-81
2021/01/06 00:08:35;;;;;;;39.58;20.10;;;1.40;81.40;;;;;;4965404;28;20074;-81
2021/01/06 00:11:00;;;;;;;35.13;18.70;;;1.30;82.20;;;;;;4968338;28;20034;-81
2021/01/06 00:13:27;;;;;;;36.88;18.92;;;1.30;82.40;;;;;;4967329;28;20022;-80
2021/01/06 00:15:53;;;;;;;35.83;19.80;;;1.40;82.30;;;;;;4951100;28;20031;-82
2021/01/06 00:18:20;;;;;;;36.45;18.50;;;1.40;82.10;;;;;;4970924;28;20034;-79
2021/01/06 00:20:47;;;;;;;35.05;19.13;;;1.50;81.90;;;;;;4971804;28;20042;-81
2021/01/06 00:23:13;;;;;;;34.75;18.13;;;1.50;81.80;;;;;;4973422;28;20039;-83
2021/01/06 00:25:41;;;;;;;34.65;18.45;;;1.60;81.60;;;;;;4971484;28;20027;-83
2021/01/06 00:28:12;;;;;;;42.55;21.63;;;1.60;81.50;;;;;;4964323;28;20503;-83
2021/01/06 00:30:48;;;;;;;42.25;19.83;;;1.60;81.50;;;;;;4958389;28;20035;-82
2021/01/06 00:33:17;;;;;;;33.10;18.92;;;1.50;81.90;;;;;;4958048;28;20395;-80
2021/01/06 00:35:51;;;;;;;37.60;19.95;;;1.50;82.00;;;;;;4957853;28;20047;-82
2021/01/06 00:38:18;;;;;;;51.42;23.02;;;1.60;82.10;;;;;;4957779;28;20550;-82
2021/01/06 00:40:45;;;;;;;44.55;21.60;;;1.60;82.10;;;;;;4957788;28;20054;-82
2021/01/06 00:43:13;;;;;;;39.38;21.23;;;1.50;82.40;;;;;;4957685;28;20081;-80
2021/01/06 00:45:40;;;;;;;38.25;19.52;;;1.60;82.50;;;;;;4957971;28;20030;-82
2021/01/06 00:48:06;;;;;;;41.75;20.75;;;1.60;82.60;;;;;;4957691;28;20493;-78
2021/01/06 00:50:32;;;;;;;36.90;20.27;;;1.60;83.40;;;;;;4957479;28;20471;-79
2021/01/06 00:53:06;;;;;;;47.53;22.77;;;1.60;82.70;;;;;;4974672;28;20039;-78
2021/01/06 00:55:32;;;;;;;36.05;18.92;;;1.60;82.70;;;;;;4939659;28;20044;-79
2021/01/06 00:57:58;;;;;;;38.00;19.65;;;1.70;82.80;;;;;;4957372;28;20546;-80
2021/01/06 01:00:30;;;;;;;38.95;20.50;;;1.70;82.70;;;;;;4957423;28;20019;-80
2021/01/06 01:02:57;;;;;;;39.58;20.63;;;1.70;82.80;;;;;;4957981;28;20470;-80
2021/01/06 01:05:32;;;;;;;41.95;20.80;;;1.70;82.70;;;;;;4941585;28;20102;-80
2021/01/06 01:07:58;;;;;;;44.80;23.17;;;1.70;82.60;;;;;;4957183;28;20134;-82
2021/01/06 01:10:24;;;;;;;38.78;19.83;;;1.70;82.70;;;;;;4957234;28;20455;-80
2021/01/06 01:12:51;;;;;;;46.85;22.98;;;1.60;82.70;;;;;;4957521;28;20019;-80
2021/01/06 01:15:22;;;;;;;44.83;22.23;;;1.70;82.80;;;;;;4957452;28;20035;-80
2021/01/06 01:17:49;;;;;;;43.72;21.90;;;1.60;82.90;;;;;;4941339;28;20396;-79
2021/01/06 01:20:16;;;;;;;43.53;22.48;;;1.60;82.80;;;;;;4957156;28;20096;-80
2021/01/06 01:22:44;;;;;;;44.35;22.00;;;1.60;82.80;;;;;;4957062;28;20039;-81
2021/01/06 01:25:11;;;;;;;43.38;22.63;;;1.70;83.00;;;;;;4957288;28;20019;-80
2021/01/06 01:27:38;;;;;;;43.70;21.48;;;1.60;83.00;;;;;;4956436;28;20501;-78
2021/01/06 01:30:06;;;;;;;50.05;24.77;;;1.60;83.10;;;;;;4941293;28;20133;-80
2021/01/06 01:32:33;;;;;;;47.25;24.02;;;1.50;83.80;;;;;;4956902;28;20058;-79
2021/01/06 01:34:58;;;;;;;48.75;24.02;;;1.40;84.60;;;;;;4972994;28;20089;-78
2021/01/06 01:37:24;;;;;;;47.47;24.63;;;1.40;84.70;;;;;;4956758;28;20472;-78
2021/01/06 01:39:49;;;;;;;49.92;24.67;;;1.40;85.00;;;;;;4956574;28;20027;-80
2021/01/06 01:42:16;;;;;;;46.65;22.38;;;1.40;85.10;;;;;;4956649;28;20101;-78
2021/01/06 01:44:55;;;;;;;43.30;22.52;;;1.50;85.10;;;;;;4956623;28;20041;-79
2021/01/06 01:47:25;;;;;;;48.85;23.83;;;1.50;85.00;;;;;;4940998;28;20117;-81
2021/01/06 01:49:51;;;;;;;42.95;22.88;;;1.50;85.00;;;;;;4956808;28;20054;-79
2021/01/06 01:52:29;;;;;;;44.75;22.45;;;1.60;85.00;;;;;;4956602;28;20031;-80
2021/01/06 01:54:56;;;;;;;47.20;22.17;;;1.60;84.90;;;;;;4973769;28;20480;-81
2021/01/06 01:57:29;;;;;;;41.95;21.50;;;1.60;85.10;;;;;;4956458;28;20026;-78
2021/01/06 02:00:22;;;;;;;44.70;21.17;;;1.60;85.10;;;;;;4956580;28;20030;-78
2021/01/06 02:03:16;;;;;;;53.42;26.88;;;1.70;85.20;;;;;;4954115;28;20134;-79
2021/01/06 02:05:53;;;;;;;52.33;26.38;;;1.70;85.20;;;;;;4956848;28;20077;-79
2021/01/06 02:08:36;;;;;;;68.28;31.92;;;1.70;85.20;;;;;;4956584;28;20043;-78
2021/01/06 02:11:16;;;;;;;101.80;48.83;;;1.70;85.90;;;;;;4956295;28;20034;-79
2021/01/06 02:13:55;;;;;;;96.53;45.65;;;1.70;85.80;;;;;;4956851;28;20154;-78
2021/01/06 02:16:44;;;;;;;76.55;36.75;;;1.70;85.70;;;;;;4941209;28;20062;-78
2021/01/06 02:19:24;;;;;;;55.72;28.48;;;1.60;85.50;;;;;;4959123;28;20464;-79
2021/01/06 02:21:50;;;;;;;58.17;26.50;;;1.70;85.50;;;;;;4956425;28;20038;-79
2021/01/06 02:24:16;;;;;;;51.50;26.02;;;1.60;85.20;;;;;;4956284;28;20100;-81
2021/01/06 02:26:42;;;;;;;53.53;25.52;;;1.60;85.30;;;;;;4956226;28;20042;-79
2021/01/06 02:29:10;;;;;;;54.30;25.35;;;1.60;85.30;;;;;;4956336;28;20019;-79
2021/01/06 02:31:37;;;;;;;48.42;22.92;;;1.60;85.40;;;;;;4940819;28;20034;-80
2021/01/06 02:34:04;;;;;;;48.95;25.15;;;1.60;85.40;;;;;;4956331;28;20027;-80
2021/01/06 02:36:29;;;;;;;54.30;25.58;;;1.60;85.60;;;;;;4956265;28;20431;-79
2021/01/06 02:38:56;;;;;;;52.20;25.63;;;1.60;85.60;;;;;;4976476;28;20085;-81
2021/01/06 02:41:23;;;;;;;47.63;24.02;;;1.60;85.70;;;;;;4959997;28;20034;-79
2021/01/06 02:43:50;;;;;;;51.83;25.20;;;1.50;86.70;;;;;;4959606;28;20035;-79
2021/01/06 02:46:16;;;;;;;49.15;24.48;;;1.50;86.10;;;;;;4960056;28;20069;-81
2021/01/06 02:48:42;;;;;;;59.00;25.90;;;1.60;86.30;;;;;;4959824;28;20034;-79
2021/01/06 02:51:21;;;;;;;51.13;24.75;;;1.60;86.30;;;;;;4959814;28;20487;-81
2021/01/06 02:53:53;;;;;;;50.10;23.58;;;1.60;86.50;;;;;;4959679;28;20066;-82
2021/01/06 02:56:20;;;;;;;48.65;23.88;;;1.60;86.50;;;;;;4960392;28;20027;-81
2021/01/06 02:58:47;;;;;;;48.53;23.52;;;1.60;86.40;;;;;;4944262;28;20039;-79
2021/01/06 03:01:18;;;;;;;45.20;22.13;;;1.60;86.40;;;;;;4960602;28;20035;-79
2021/01/06 03:03:45;;;;;;;43.55;21.45;;;1.70;86.40;;;;;;4959674;28;20034;-80
2021/01/06 03:06:36;;;;;;;53.38;23.88;;;1.70;86.20;;;;;;4977254;28;20102;-80
2021/01/06 03:09:07;;;;;;;48.90;22.45;;;1.70;86.20;;;;;;4959616;28;20069;-78
2021/01/06 03:11:33;;;;;;;46.65;21.55;;;1.70;86.10;;;;;;4959668;28;20054;-81
2021/01/06 03:13:59;;;;;;;50.72;24.40;;;1.70;86.10;;;;;;4943187;28;20505;-82
2021/01/06 03:16:24;;;;;;;48.70;25.17;;;1.80;85.90;;;;;;4975180;28;20042;-82
2021/01/06 03:18:51;;;;;;;49.65;23.63;;;1.80;85.80;;;;;;4959008;28;20061;-82
2021/01/06 03:21:17;;;;;;;55.17;25.27;;;1.80;85.60;;;;;;4959137;28;20035;-80
2021/01/06 03:23:50;;;;;;;53.80;24.75;;;1.80;85.50;;;;;;4959012;28;20508;-81
2021/01/06 03:26:20;;;;;;;51.38;24.63;;;1.70;85.70;;;;;;4943071;28;20062;-79
2021/01/06 03:28:51;;;;;;;50.47;23.95;;;1.70;85.90;;;;;;4943011;28;20030;-82
2021/01/06 03:31:27;;;;;;;48.83;22.42;;;1.70;86.00;;;;;;4976324;28;20061;-81
2021/01/06 03:34:04;;;;;;;44.53;20.02;;;1.60;86.20;;;;;;4958709;28;20062;-81
2021/01/06 03:36:38;;;;;;;48.17;23.00;;;1.50;86.50;;;;;;4958942;28;20027;-82
2021/01/06 03:39:15;;;;;;;44.20;21.20;;;1.50;86.70;;;;;;4958938;28;20588;-80
2021/01/06 03:41:41;;;;;;;43.90;20.08;;;1.50;86.80;;;;;;4958565;28;20164;-83
2021/01/06 03:44:09;;;;;;;50.33;21.38;;;1.50;86.90;;;;;;4974828;28;20368;-78
2021/01/06 03:46:55;;;;;;;51.42;21.40;;;1.50;87.00;;;;;;4958864;28;20023;-80
2021/01/06 03:49:41;;;;;;;41.30;19.27;;;1.40;87.00;;;;;;4958017;28;20031;-81
2021/01/06 03:52:34;;;;;;;42.88;19.70;;;1.50;87.10;;;;;;4958561;28;20479;-82
2021/01/06 03:55:29;;;;;;;42.75;19.60;;;1.50;87.10;;;;;;4958560;28;20038;-82
2021/01/06 03:57:56;;;;;;;33.80;16.55;;;1.60;87.10;;;;;;4959511;28;20019;-79
2021/01/06 04:00:45;;;;;;;35.90;16.67;;;1.60;87.00;;;;;;4958752;28;20027;-80
2021/01/06 04:03:37;;;;;;;32.53;16.48;;;1.50;87.00;;;;;;4975744;28;20031;-80
2021/01/06 04:06:04;;;;;;;26.38;13.18;;;1.60;87.10;;;;;;4958387;28;20026;-81
2021/01/06 04:09:01;;;;;;;23.95;12.65;;;1.50;87.10;;;;;;4950373;29;20460;-81
2021/01/06 04:11:36;;;;;;;20.35;11.10;;;1.50;87.00;;;;;;4908206;29;20036;-80
2021/01/06 04:14:03;;;;;;;23.13;11.52;;;1.60;86.60;;;;;;4938880;29;20027;-80
2021/01/06 04:16:29;;;;;;;21.60;10.95;;;1.50;86.30;;;;;;4938864;29;20051;-81
2021/01/06 04:18:55;;;;;;;29.98;13.60;;;1.50;86.30;;;;;;4939180;29;20027;-80
2021/01/06 04:21:22;;;;;;;27.40;13.93;;;1.40;86.10;;;;;;4922950;29;20057;-80
2021/01/06 04:23:47;;;;;;;20.70;11.60;;;1.40;86.20;;;;;;4938658;29;20027;-82
2021/01/06 04:26:14;;;;;;;20.13;12.15;;;1.30;86.30;;;;;;4938476;29;20500;-81
2021/01/06 04:28:42;;;;;;;18.25;11.10;;;1.30;86.50;;;;;;4938620;29;20054;-80
2021/01/06 04:31:16;;;;;;;21.00;10.88;;;1.30;86.70;;;;;;4938669;29;20070;-81
2021/01/06 04:33:51;;;;;;;12.60;7.50;;;1.30;86.80;;;;;;4938813;29;20464;-81
2021/01/06 04:36:22;;;;;;;19.38;10.93;;;1.30;86.80;;;;;;4938582;29;20082;-79
2021/01/06 04:38:51;;;;;;;20.27;11.18;;;1.20;86.80;;;;;;4938463;29;20035;-79
2021/01/06 04:41:42;;;;;;;21.50;11.35;;;1.20;87.00;;;;;;4938138;29;20381;-77
2021/01/06 04:44:32;;;;;;;19.27;9.93;;;1.20;87.40;;;;;;4938443;29;20023;-78
2021/01/06 04:47:42;;;;;;;18.90;10.57;;;1.00;87.70;;;;;;4955530;29;20488;-79
2021/01/06 04:50:16;;;;;;;21.63;11.38;;;0.90;88.30;;;;;;4938423;29;20027;-81
2021/01/06 04:53:18;;;;;;;19.65;10.55;;;0.90;89.00;;;;;;4938310;29;20027;-77
2021/01/06 04:56:18;;;;;;;17.58;10.07;;;0.80;89.30;;;;;;4938422;29;20075;-77
2021/01/06 04:58:57;;;;;;;18.75;10.60;;;0.90;89.30;;;;;;4938334;29;20543;-78
2021/01/06 05:01:48;;;;;;;17.65;9.95;;;1.00;89.00;;;;;;4938028;29;20034;-78
2021/01/06 05:04:14;;;;;;;19.88;11.60;;;1.00;88.70;;;;;;4955510;29;20034;-78
2021/01/06 05:06:56;;;;;;;21.63;13.15;;;0.90;88.40;;;;;;4938144;29;20023;-78
2021/01/06 05:09:40;;;;;;;21.42;12.02;;;0.90;88.50;;;;;;4952984;28;20049;-78
2021/01/06 05:12:32;;;;;;;21.15;11.82;;;1.00;88.50;;;;;;4957258;28;20031;-79
2021/01/06 05:15:10;;;;;;;18.88;11.32;;;1.00;88.40;;;;;;4957121;28;20475;-78
2021/01/06 05:17:40;;;;;;;19.67;10.63;;;1.10;88.40;;;;;;4974522;28;20127;-77
2021/01/06 05:20:08;;;;;;;18.35;11.23;;;1.10;88.20;;;;;;4957122;28;20027;-78
2021/01/06 05:22:35;;;;;;;16.77;10.80;;;1.20;88.10;;;;;;4957115;28;20436;-78
2021/01/06 05:25:02;;;;;;;19.13;10.85;;;1.20;87.80;;;;;;4957177;28;20494;-78
2021/01/06 05:27:35;;;;;;;18.75;11.15;;;1.20;87.40;;;;;;4941246;28;20041;-79
2021/01/06 05:30:14;;;;;;;18.92;10.90;;;1.20;87.10;;;;;;4956825;28;20093;-79
2021/01/06 05:32:41;;;;;;;19.60;11.52;;;1.20;87.00;;;;;;4957123;28;20373;-78
2021/01/06 05:35:16;;;;;;;20.10;11.13;;;1.10;87.10;;;;;;4956852;28;20034;-77
2021/01/06 05:37:52;;;;;;;18.30;10.07;;;1.10;87.30;;;;;;4974167;28;20027;-77
2021/01/06 05:40:18;;;;;;;19.67;11.68;;;1.20;87.30;;;;;;4956943;28;20085;-77
2021/01/06 05:42:56;;;;;;;19.70;11.98;;;1.20;87.10;;;;;;4940095;28;20050;-77
2021/01/06 05:45:28;;;;;;;16.58;10.80;;;1.10;87.20;;;;;;4972861;28;20023;-77
2021/01/06 05:47:58;;;;;;;16.83;10.00;;;1.10;87.10;;;;;;4956790;28;20027;-81
2021/01/06 05:50:34;;;;;;;18.33;10.82;;;1.10;87.00;;;;;;4957201;28;20122;-76
2021/01/06 05:53:22;;;;;;;15.27;9.38;;;1.20;86.90;;;;;;4956680;28;20053;-76
2021/01/06 05:55:52;;;;;;;15.32;9.63;;;1.20;86.60;;;;;;4956682;28;20023;-76
2021/01/06 05:58:24;;;;;;;14.63;9.75;;;1.10;86.40;;;;;;4956750;28;20117;-76
2021/01/06 06:01:12;;;;;;;19.15;10.93;;;1.10;86.50;;;;;;4956424;28;20019;-77
2021/01/06 06:04:02;;;;;;;21.83;9.90;;;1.10;86.40;;;;;;4956714;28;20491;-76
2021/01/06 06:07:06;;;;;;;18.23;10.50;;;1.10;87.10;;;;;;4956625;28;20030;-76
2021/01/06 06:10:19;;;;;;;16.08;9.07;;;1.10;86.50;;;;;;4932515;29;20077;-76
2021/01/06 06:12:58;;;;;;;15.82;9.35;;;1.10;86.70;;;;;;4955771;28;20380;-77
2021/01/06 06:15:57;;;;;;;17.23;10.70;;;1.10;86.70;;;;;;4941384;29;20023;-76
2021/01/06 06:18:53;;;;;;;16.50;9.10;;;1.10;86.30;;;;;;4957976;29;20583;-77
2021/01/06 06:21:22;;;;;;;15.20;8.95;;;1.00;86.30;;;;;;4940923;29;20388;-77
2021/01/06 06:23:59;;;;;;;14.35;9.05;;;0.90;86.90;;;;;;4940926;29;20039;-78
2021/01/06 06:26:37;;;;;;;15.80;9.82;;;0.90;87.20;;;;;;4941187;29;20436;-78
2021/01/06 06:29:26;;;;;;;17.77;10.98;;;0.90;87.30;;;;;;4941055;29;20027;-77
2021/01/06 06:31:55;;;;;;;15.25;9.55;;;0.80;87.70;;;;;;4940891;29;20045;-77
2021/01/06 06:34:31;;;;;;;19.95;11.10;;;0.70;88.20;;;;;;4940871;29;20030;-78
2021/01/06 06:37:13;;;;;;;17.75;10.82;;;0.70;88.60;;;;;;4925725;29;20050;-78
2021/01/06 06:40:03;;;;;;;20.70;11.30;;;0.60;88.80;;;;;;4956861;28;20031;-77
2021/01/06 06:42:45;;;;;;;17.15;10.15;;;0.50;89.20;;;;;;4936298;29;20431;-77
2021/01/06 06:45:38;;;;;;;17.80;10.55;;;0.50;89.40;;;;;;4926834;29;20434;-77
2021/01/06 06:48:39;;;;;;;18.65;11.00;;;0.50;89.60;;;;;;4940653;29;20502;-81
2021/01/06 06:51:19;;;;;;;18.20;10.85;;;0.50;89.30;;;;;;4938897;29;20024;-79
2021/01/06 06:54:10;;;;;;;19.33;11.02;;;0.50;90.10;;;;;;4957760;29;20034;-78
2021/01/06 06:56:52;;;;;;;22.45;11.57;;;0.50;90.10;;;;;;4940648;29;20024;-79
2021/01/06 06:59:55;;;;;;;17.92;10.27;;;0.50;89.80;;;;;;4940460;29;20030;-79
2021/01/06 07:02:21;;;;;;;23.05;11.63;;;0.50;89.80;;;;;;4940416;29;20134;-82
2021/01/06 07:04:58;;;;;;;18.15;10.63;;;0.50;89.80;;;;;;4956316;29;20106;-76
2021/01/06 07:07:32;;;;;;;18.42;11.13;;;0.50;89.80;;;;;;4924630;29;20065;-78
2021/01/06 07:09:59;;;;;;;22.07;11.63;;;0.50;89.80;;;;;;4959460;28;20085;-77
2021/01/06 07:12:25;;;;;;;19.17;11.00;;;0.40;90.00;;;;;;4959691;28;20779;-79
2021/01/06 07:14:57;;;;;;;18.60;11.20;;;0.50;90.30;;;;;;4959237;28;20432;-79
2021/01/06 07:17:34;;;;;;;20.90;11.77;;;0.50;90.10;;;;;;4959446;28;20078;-78
2021/01/06 07:20:10;;;;;;;18.55;10.75;;;0.50;90.00;;;;;;4959157;28;20114;-82
2021/01/06 07:22:38;;;;;;;22.58;12.88;;;0.60;90.00;;;;;;4959187;28;20097;-77
2021/01/06 07:25:32;;;;;;;19.02;11.35;;;0.60;89.80;;;;;;4958070;28;20037;-77
2021/01/06 07:28:01;;;;;;;23.27;11.75;;;0.70;89.70;;;;;;4919956;29;20131;-77
2021/01/06 07:30:36;;;;;;;24.92;12.20;;;0.70;89.30;;;;;;4951800;29;20043;-78
2021/01/06 07:33:50;;;;;;;34.58;17.13;;;0.70;89.20;;;;;;4951699;29;20039;-82
2021/01/06 07:36:29;;;;;;;32.60;16.35;;;0.80;89.00;;;;;;4935514;29;20040;-77
2021/01/06 07:38:56;;;;;;;28.33;14.82;;;0.90;89.00;;;;;;4951826;29;20419;-78
2021/01/06 07:41:23;;;;;;;36.47;17.23;;;1.00;88.90;;;;;;4951578;29;20027;-77
2021/01/06 07:43:57;;;;;;;24.90;12.80;;;1.00;88.90;;;;;;4951360;29;20046;-77
2021/01/06 07:46:25;;;;;;;17.13;10.27;;;1.00;87.80;;;;;;4935723;29;20043;-78
2021/01/06 07:49:25;;;;;;;21.90;12.10;;;1.00;87.60;;;;;;4951568;29;20199;-78
2021/01/06 07:51:58;;;;;;;17.98;10.93;;;1.10;87.40;;;;;;4951841;29;20038;-78
2021/01/06 07:54:36;;;;;;;18.33;10.82;;;1.10;87.20;;;;;;4951886;29;20086;-78
2021/01/06 07:57:06;;;;;;;17.35;9.98;;;1.10;87.10;;;;;;4951738;29;20020;-78
2021/01/06 07:59:55;;;;;;;17.80;10.07;;;1.10;86.90;;;;;;4948555;28;20039;-81
2021/01/06 08:02:39;;;;;;;16.77;10.45;;;1.10;86.70;;;;;;4977731;28;20046;-81
2021/01/06 08:05:29;;;;;;;18.05;10.55;;;1.10;86.60;;;;;;4959766;28;20074;-83
2021/01/06 08:08:21;;;;;;;18.20;10.23;;;1.20;86.40;;;;;;4976512;28;20122;-82
2021/01/06 08:10:51;;;;;;;14.85;9.60;;;1.20;86.50;;;;;;4959005;28;20085;-82
2021/01/06 08:13:24;;;;;;;16.92;9.98;;;1.10;86.60;;;;;;4958410;28;20022;-82
2021/01/06 08:16:12;;;;;;;13.43;9.13;;;1.10;86.30;;;;;;4958351;28;20038;-83
2021/01/06 08:19:11;;;;;;;14.23;9.60;;;1.10;86.70;;;;;;4958011;28;20562;-83
2021/01/06 08:21:55;;;;;;;16.83;9.18;;;1.00;86.90;;;;;;4958108;28;20027;-83
2021/01/06 08:24:48;;;;;;;13.55;8.70;;;0.90;87.00;;;;;;4958137;28;20035;-84
2021/01/06 08:27:27;;;;;;;14.90;9.52;;;0.90;87.20;;;;;;4958072;28;20030;-84
2021/01/06 08:30:09;;;;;;;15.63;10.02;;;0.90;87.60;;;;;;4958293;28;20034;-83
2021/01/06 08:32:35;;;;;;;15.23;9.65;;;1.00;87.50;;;;;;4957840;28;20106;-83
2021/01/06 08:35:10;;;;;;;17.23;9.60;;;1.00;87.50;;;;;;4957589;28;20031;-84
2021/01/06 08:37:38;;;;;;;15.48;9.98;;;1.00;87.40;;;;;;4942658;28;20027;-81
2021/01/06 08:40:22;;;;;;;15.85;9.23;;;1.10;87.40;;;;;;4942028;28;20185;-82
2021/01/06 08:42:49;;;;;;;16.83;10.63;;;1.20;87.30;;;;;;4957713;28;20034;-83
2021/01/06 08:45:24;;;;;;;17.70;10.65;;;1.20;86.60;;;;;;4957842;28;20480;-86
2021/01/06 08:47:50;;;;;;;19.95;10.77;;;1.20;86.30;;;;;;4944147;28;20030;-83
2021/01/06 08:50:15;;;;;;;16.55;10.10;;;1.30;86.40;;;;;;4957473;28;20030;-80
2021/01/06 08:52:48;;;;;;;18.25;10.45;;;1.40;86.20;;;;;;4957548;28;20109;-76
2021/01/06 08:55:25;;;;;;;16.50;10.52;;;1.50;86.10;;;;;;4957558;28;20031;-77
2021/01/06 08:58:04;;;;;;;19.23;10.70;;;1.70;86.00;;;;;;4957359;28;20023;-78
2021/01/06 09:00:38;;;;;;;27.23;9.77;;;1.90;85.40;;;;;;4957600;28;20081;-84
2021/01/06 09:03:35;;;;;;;18.08;9.73;;;2.50;91.60;;;;;;4957399;28;20038;-83
2021/01/06 09:06:10;;;;;;;14.95;8.90;;;3.10;90.30;;;;;;4957271;28;20029;-85
2021/01/06 09:08:38;;;;;;;14.37;9.40;;;3.80;85.10;;;;;;4976465;28;20508;-84
2021/01/06 09:11:28;;;;;;;11.77;7.63;;;4.30;80.70;;;;;;4960239;28;20081;-84
2021/01/06 09:14:00;;;;;;;14.30;7.45;;;4.80;77.50;;;;;;4958233;28;20027;-82
2021/01/06 09:16:40;;;;;;;9.38;6.47;;;5.20;75.50;;;;;;4975599;28;20158;-82
2021/01/06 09:19:25;;;;;;;9.75;6.20;;;5.40;73.00;;;;;;4961142;28;20074;-86
2021/01/06 09:21:53;;;;;;;8.70;6.20;;;5.70;70.90;;;;;;4957526;28;20023;-84
2021/01/06 09:24:31;;;;;;;9.43;6.43;;;5.90;69.20;;;;;;4958017;28;20093;-84
2021/01/06 09:27:19;;;;;;;8.15;5.70;;;5.90;67.80;;;;;;4974719;28;20429;-85
2021/01/06 09:29:45;;;;;;;9.63;6.03;;;6.00;67.00;;;;;;4957076;28;20038;-74
2021/01/06 09:32:16;;;;;;;8.60;6.20;;;5.90;65.90;;;;;;4956844;28;20332;-79
2021/01/06 09:34:47;;;;;;;12.60;7.93;;;5.60;65.10;;;;;;4956934;28;20023;-79
2021/01/06 09:37:23;;;;;;;11.18;7.68;;;5.20;65.80;;;;;;4974091;28;20117;-78
2021/01/06 09:39:50;;;;;;;10.73;6.93;;;4.80;67.20;;;;;;4956814;28;20027;-77
2021/01/06 09:42:18;;;;;;;12.07;6.82;;;4.60;68.40;;;;;;4973919;28;20038;-79
2021/01/06 09:44:44;;;;;;;13.60;6.93;;;4.40;69.40;;;;;;4939821;28;20118;-78
2021/01/06 09:47:27;;;;;;;10.07;7.22;;;4.20;69.90;;;;;;4939873;28;20031;-81
2021/01/06 09:49:58;;;;;;;11.70;7.82;;;3.70;71.20;;;;;;4970030;28;20030;-79
2021/01/06 09:52:36;;;;;;;16.60;8.77;;;3.10;73.80;;;;;;4956978;28;20391;-78
2021/01/06 09:55:05;;;;;;;12.35;8.45;;;2.90;75.20;;;;;;4974071;28;20551;-79
2021/01/06 09:57:32;;;;;;;12.15;8.15;;;2.70;76.80;;;;;;4956402;28;20063;-79
2021/01/06 10:00:07;;;;;;;11.27;7.20;;;2.50;78.00;;;;;;4941029;28;20045;-78
2021/01/06 10:02:35;;;;;;;11.60;7.20;;;2.40;78.40;;;;;;4941681;28;20382;-80
2021/01/06 10:05:13;;;;;;;12.40;7.90;;;2.50;78.40;;;;;;4956195;28;20031;-83
2021/01/06 10:07:51;;;;;;;10.95;8.02;;;2.60;78.50;;;;;;4956734;28;20479;-82
2021/01/06 10:10:24;;;;;;;11.88;7.90;;;2.50;79.00;;;;;;4960125;28;20479;-81
2021/01/06 10:12:56;;;;;;;10.32;7.30;;;2.70;78.50;;;;;;4972873;28;20475;-82
2021/01/06 10:15:35;;;;;;;12.88;8.05;;;2.60;77.80;;;;;;4976092;28;20031;-79
2021/01/06 10:18:16;;;;;;;10.40;7.65;;;2.80;78.50;;;;;;4993335;28;20019;-79
2021/01/06 10:21:19;;;;;;;14.60;8.65;;;2.70;78.10;;;;;;4976025;28;20033;-78
2021/01/06 10:23:58;;;;;;;9.88;7.35;;;2.60;77.30;;;;;;4975835;28;20030;-81
2021/01/06 10:26:35;;;;;;;10.90;8.20;;;2.80;77.40;;;;;;4976134;28;20483;-81
2021/01/06 10:29:37;;;;;;;12.27;8.20;;;2.80;76.90;;;;;;4992305;28;20041;-77
2021/01/06 10:32:12;;;;;;;12.75;8.73;;;2.80;76.50;;;;;;4962664;28;20027;-79
2021/01/06 10:34:48;;;;;;;13.02;8.65;;;2.90;76.50;;;;;;4975941;28;20030;-78
2021/01/06 10:37:29;;;;;;;12.82;9.10;;;2.80;76.40;;;;;;4975790;28;20022;-79
2021/01/06 10:39:57;;;;;;;12.32;8.18;;;2.70;76.70;;;;;;4959870;28;20096;-79
2021/01/06 10:42:23;;;;;;;11.93;7.88;;;2.70;77.20;;;;;;4992810;28;20037;-78
2021/01/06 10:45:07;;;;;;;9.93;6.88;;;2.80;77.10;;;;;;4975680;28;20022;-82
2021/01/06 10:47:33;;;;;;;11.90;7.88;;;2.90;76.90;;;;;;4975660;28;20060;-78
2021/01/06 10:50:24;;;;;;;10.65;7.65;;;3.00;76.50;;;;;;4975378;28;20026;-81
2021/01/06 10:53:19;;;;;;;10.77;7.00;;;3.10;76.20;;;;;;4975356;28;20490;-80
2021/01/06 10:56:05;;;;;;;10.18;7.07;;;3.30;76.00;;;;;;4975160;28;20038;-79
2021/01/06 10:58:45;;;;;;;10.68;6.82;;;3.50;75.60;;;;;;4959925;28;20030;-81
2021/01/06 11:02:07;;;;;;;10.48;7.70;;;3.60;74.30;;;;;;4996317;28;20041;-79
2021/01/06 11:05:08;;;;;;;10.80;7.35;;;3.40;73.80;;;;;;4907844;29;20044;-80
2021/01/06 11:08:14;;;;;;;12.43;8.05;;;3.50;73.90;;;;;;4929601;29;20035;-81
2021/01/06 11:11:13;;;;;;;12.15;8.05;;;3.60;73.70;;;;;;4939032;29;20049;-78
2021/01/06 11:14:07;;;;;;;9.40;6.57;;;3.60;73.60;;;;;;4955154;29;20035;-82
2021/01/06 11:16:50;;;;;;;11.13;7.07;;;3.60;73.40;;;;;;4939250;29;20027;-79
2021/01/06 11:19:41;;;;;;;12.15;7.30;;;3.60;73.00;;;;;;4938835;29;20035;-79
2021/01/06 11:22:28;;;;;;;10.95;7.50;;;3.50;72.80;;;;;;4922932;29;20038;-79
2021/01/06 11:25:04;;;;;;;14.35;8.07;;;3.60;72.90;;;;;;4938894;29;20035;-79
2021/01/06 11:27:46;;;;;;;11.02;7.55;;;3.60;73.00;;;;;;4939052;29;20038;-80
2021/01/06 11:30:46;;;;;;;10.25;7.25;;;3.50;73.90;;;;;;4938779;29;20086;-80
2021/01/06 11:33:27;;;;;;;14.07;8.18;;;3.50;73.40;;;;;;4939328;29;20035;-79
2021/01/06 11:35:57;;;;;;;13.13;8.60;;;3.50;73.70;;;;;;4973504;28;20038;-82
2021/01/06 11:38:41;;;;;;;12.57;9.02;;;3.50;73.60;;;;;;4996106;28;20030;-81
2021/01/06 11:41:16;;;;;;;13.80;8.77;;;3.40;73.60;;;;;;4978440;28;20023;-82
2021/01/06 11:43:48;;;;;;;13.85;8.75;;;3.50;74.00;;;;;;4978366;28;20034;-82
2021/01/06 11:46:48;;;;;;;12.50;7.93;;;3.40;74.20;;;;;;4997015;28;20076;-82
2021/01/06 11:49:31;;;;;;;12.05;8.75;;;3.50;74.30;;;;;;4980889;28;20471;-82
2021/01/06 11:52:33;;;;;;;12.65;8.73;;;3.50;74.20;;;;;;4978375;28;20026;-83
2021/01/06 11:55:36;;;;;;;12.80;8.35;;;3.50;74.30;;;;;;4945084;28;20046;-85
2021/01/06 11:58:49;;;;;;;10.38;7.88;;;3.50;74.10;;;;;;4989925;28;20113;-86
2021/01/06 12:02:14;;;;;;;11.90;7.07;;;3.60;74.00;;;;;;4995383;28;20026;-85
2021/01/06 12:05:21;;;;;;;12.80;7.47;;;3.60;73.50;;;;;;4991575;28;20065;-84
2021/01/06 12:08:39;;;;;;;12.18;7.95;;;3.60;73.60;;;;;;4998596;28;20082;-83
2021/01/06 12:12:09;;;;;;;14.80;8.85;;;3.50;73.80;;;;;;4991770;28;20037;-85
2021/01/06 12:15:22;;;;;;;17.13;9.75;;;3.40;74.60;;;;;;4966959;28;20113;-82
2021/01/06 12:18:22;;;;;;;13.82;8.75;;;3.30;75.30;;;;;;4900347;29;20028;-81
2021/01/06 12:21:33;;;;;;;13.63;8.77;;;3.20;76.30;;;;;;4899520;29;20051;-81
2021/01/06 12:27:59;;;;;;;17.73;9.35;;;2.90;77.70;;;;;;4916405;29;20508;-83
2021/01/06 12:31:40;;;;;;;12.95;8.75;;;3.00;77.80;;;;;;4888624;29;20529;-82
2021/01/06 12:34:37;;;;;;;12.15;8.02;;;2.90;78.10;;;;;;4841064;29;20124;-80
2021/01/06 12:37:26;;;;;;;14.38;8.45;;;2.80;78.20;;;;;;4859390;29;20034;-83
2021/01/06 12:40:28;;;;;;;10.13;7.05;;;2.70;78.70;;;;;;4843939;29;20520;-82
2021/01/06 12:43:19;;;;;;;12.48;8.27;;;2.80;78.80;;;;;;4843982;29;20266;-83
2021/01/06 12:46:14;;;;;;;10.73;7.45;;;2.70;79.10;;;;;;4897857;29;20039;-82
2021/01/06 12:49:18;;;;;;;11.40;7.18;;;2.70;79.40;;;;;;4905041;29;20039;-81
2021/01/06 12:52:17;;;;;;;12.27;8.45;;;2.70;79.40;;;;;;4950959;28;20032;-80
2021/01/06 12:54:57;;;;;;;13.07;8.52;;;2.70;79.60;;;;;;4994154;28;20486;-80
2021/01/06 12:57:27;;;;;;;14.13;8.95;;;2.60;79.70;;;;;;4945541;28;20050;-80
2021/01/06 13:00:01;;;;;;;13.50;8.70;;;2.60;80.00;;;;;;4993908;28;20034;-81
2021/01/06 13:02:28;;;;;;;12.77;8.63;;;2.60;80.40;;;;;;4976260;28;20038;-79
2021/01/06 13:04:58;;;;;;;12.15;8.73;;;2.60;80.30;;;;;;4976360;28;20506;-79
2021/01/06 13:07:26;;;;;;;13.00;9.40;;;2.60;80.50;;;;;;4976506;28;20037;-79
2021/01/06 13:09:58;;;;;;;12.43;8.90;;;2.60;80.50;;;;;;4976094;28;20138;-78
2021/01/06 13:12:30;;;;;;;14.95;10.25;;;2.70;80.90;;;;;;4976227;28;20030;-80
2021/01/06 13:15:22;;;;;;;14.38;10.02;;;2.60;80.70;;;;;;4976315;28;20026;-78
2021/01/06 13:18:11;;;;;;;12.77;8.27;;;2.50;80.90;;;;;;4993769;28;20035;-80
2021/01/06 13:21:00;;;;;;;14.30;9.48;;;2.50;81.30;;;;;;4986336;28;20026;-79
2021/01/06 13:23:49;;;;;;;12.45;8.25;;;2.50;81.20;;;;;;4982627;28;20034;-79
2021/01/06 13:26:20;;;;;;;13.65;8.20;;;2.50;81.00;;;;;;4992538;28;20100;-79
2021/01/06 13:29:07;;;;;;;14.68;8.95;;;2.60;81.00;;;;;;4975942;28;20648;-80
2021/01/06 13:31:44;;;;;;;16.55;10.18;;;2.60;80.90;;;;;;4989421;28;20045;-77
2021/01/06 13:34:21;;;;;;;16.15;11.10;;;2.60;80.90;;;;;;4974574;28;20490;-76
2021/01/06 13:36:53;;;;;;;14.95;9.57;;;2.60;81.00;;;;;;4974259;28;20026;-75
2021/01/06 13:39:30;;;;;;;12.25;8.40;;;2.50;80.90;;;;;;4956582;28;20054;-76
2021/01/06 13:41:59;;;;;;;18.08;10.30;;;2.40;81.10;;;;;;4956396;28;20031;-76